sensor_id;sensor_type;location;lat;lon;timestamp;pressure;altitude;pressure_sealevel;temperature;humidity
85039;BME280;75366;54.588;18.456;2024-02-04T00:00:14;99870.83;;;4.33;73.73
85039;BME280;75366;54.588;18.456;2024-02-04T00:05:37;99873.53;;;4.37;73.72
85039;BME280;75366;54.588;18.456;2024-02-04T00:10:40;99871.24;;;4.39;73.59
85039;BME280;75366;54.588;18.456;2024-02-04T00:15:43;99872.43;;;4.38;73.27
85039;BME280;75366;54.588;18.456;2024-02-04T00:20:46;99859.75;;;4.37;73.20
85039;BME280;75366;54.588;18.456;2024-02-04T00:25:48;99848.27;;;4.32;73.04
85039;BME280;75366;54.588;18.456;2024-02-04T00:30:51;99849.30;;;4.26;72.97
85039;BME280;75366;54.588;18.456;2024-02-04T00:35:58;99845.98;;;4.25;72.71
85039;BME280;75366;54.588;18.456;2024-02-04T00:41:01;99846.16;;;4.20;72.85
85039;BME280;75366;54.588;18.456;2024-02-04T00:46:04;99862.27;;;4.18;72.99
85039;BME280;75366;54.588;18.456;2024-02-04T00:51:07;99863.14;;;4.17;73.21
85039;BME280;75366;54.588;18.456;2024-02-04T00:56:10;99866.30;;;4.18;73.43
85039;BME280;75366;54.588;18.456;2024-02-04T01:01:14;99865.28;;;4.18;73.36
85039;BME280;75366;54.588;18.456;2024-02-04T01:06:17;99860.50;;;4.16;73.62
85039;BME280;75366;54.588;18.456;2024-02-04T01:11:20;99853.88;;;4.18;73.48
85039;BME280;75366;54.588;18.456;2024-02-04T01:16:23;99847.96;;;4.18;73.74
85039;BME280;75366;54.588;18.456;2024-02-04T01:21:26;99838.94;;;4.17;73.71
85039;BME280;75366;54.588;18.456;2024-02-04T01:26:29;99833.91;;;4.18;74.04
85039;BME280;75366;54.588;18.456;2024-02-04T01:31:32;99830.27;;;4.16;73.90
85039;BME280;75366;54.588;18.456;2024-02-04T01:36:36;99838.89;;;4.16;73.87
85039;BME280;75366;54.588;18.456;2024-02-04T01:41:39;99825.27;;;4.18;73.38
85039;BME280;75366;54.588;18.456;2024-02-04T01:46:42;99811.57;;;4.18;73.05
85039;BME280;75366;54.588;18.456;2024-02-04T01:51:45;99810.34;;;4.18;73.16
85039;BME280;75366;54.588;18.456;2024-02-04T01:56:49;99809.85;;;4.14;73.40
85039;BME280;75366;54.588;18.456;2024-02-04T02:01:52;99814.86;;;4.10;73.74
85039;BME280;75366;54.588;18.456;2024-02-04T02:06:56;99810.02;;;4.06;73.74
85039;BME280;75366;54.588;18.456;2024-02-04T02:12:19;99806.27;;;4.07;73.75
85039;BME280;75366;54.588;18.456;2024-02-04T02:17:31;99801.58;;;4.09;73.59
85039;BME280;75366;54.588;18.456;2024-02-04T02:23:22;99795.08;;;4.10;73.66
85039;BME280;75366;54.588;18.456;2024-02-04T02:28:31;99811.39;;;4.16;73.71
85039;BME280;75366;54.588;18.456;2024-02-04T02:33:35;99819.64;;;4.20;73.12
85039;BME280;75366;54.588;18.456;2024-02-04T02:38:47;99827.91;;;4.25;72.88
85039;BME280;75366;54.588;18.456;2024-02-04T02:43:55;99823.04;;;4.27;73.02
85039;BME280;75366;54.588;18.456;2024-02-04T02:48:58;99822.59;;;4.30;72.98
85039;BME280;75366;54.588;18.456;2024-02-04T02:54:01;99806.69;;;4.30;73.11
85039;BME280;75366;54.588;18.456;2024-02-04T02:59:04;99802.98;;;4.30;72.76
85039;BME280;75366;54.588;18.456;2024-02-04T03:04:08;99800.70;;;4.28;72.94
85039;BME280;75366;54.588;18.456;2024-02-04T03:09:11;99796.21;;;4.27;72.74
85039;BME280;75366;54.588;18.456;2024-02-04T03:14:16;99788.41;;;4.26;72.56
85039;BME280;75366;54.588;18.456;2024-02-04T03:19:19;99799.52;;;4.28;72.79
85039;BME280;75366;54.588;18.456;2024-02-04T03:24:22;99797.84;;;4.28;72.71
85039;BME280;75366;54.588;18.456;2024-02-04T03:29:25;99801.02;;;4.31;72.68
85039;BME280;75366;54.588;18.456;2024-02-04T03:34:28;99809.20;;;4.32;72.65
85039;BME280;75366;54.588;18.456;2024-02-04T03:39:31;99804.30;;;4.33;72.90
85039;BME280;75366;54.588;18.456;2024-02-04T03:44:34;99795.27;;;4.34;72.80
85039;BME280;75366;54.588;18.456;2024-02-04T03:49:37;99788.02;;;4.34;72.61
85039;BME280;75366;54.588;18.456;2024-02-04T03:54:40;99791.63;;;4.39;72.66
85039;BME280;75366;54.588;18.456;2024-02-04T03:59:46;99777.23;;;4.39;72.62
85039;BME280;75366;54.588;18.456;2024-02-04T04:04:49;99769.42;;;4.41;72.12
85039;BME280;75366;54.588;18.456;2024-02-04T04:09:56;99764.67;;;4.43;71.63
85039;BME280;75366;54.588;18.456;2024-02-04T04:14:59;99761.24;;;4.42;72.01
85039;BME280;75366;54.588;18.456;2024-02-04T04:20:04;99756.15;;;4.42;71.90
85039;BME280;75366;54.588;18.456;2024-02-04T04:25:08;99734.98;;;4.41;71.37
85039;BME280;75366;54.588;18.456;2024-02-04T04:30:11;99736.34;;;4.42;71.03
85039;BME280;75366;54.588;18.456;2024-02-04T04:35:15;99745.70;;;4.41;71.33
85039;BME280;75366;54.588;18.456;2024-02-04T04:40:18;99738.13;;;4.43;71.11
85039;BME280;75366;54.588;18.456;2024-02-04T04:45:20;99732.29;;;4.44;71.28
85039;BME280;75366;54.588;18.456;2024-02-04T04:50:24;99728.80;;;4.47;71.11
85039;BME280;75366;54.588;18.456;2024-02-04T04:55:27;99725.20;;;4.44;71.35
85039;BME280;75366;54.588;18.456;2024-02-04T05:00:30;99721.48;;;4.44;71.05
85039;BME280;75366;54.588;18.456;2024-02-04T05:05:33;99721.86;;;4.43;70.85
85039;BME280;75366;54.588;18.456;2024-02-04T05:10:36;99720.83;;;4.43;70.77
85039;BME280;75366;54.588;18.456;2024-02-04T05:15:39;99733.98;;;4.41;71.12
85039;BME280;75366;54.588;18.456;2024-02-04T05:20:42;99736.05;;;4.39;70.80
85039;BME280;75366;54.588;18.456;2024-02-04T05:25:46;99747.89;;;4.42;70.82
85039;BME280;75366;54.588;18.456;2024-02-04T05:30:49;99748.35;;;4.43;71.04
85039;BME280;75366;54.588;18.456;2024-02-04T05:35:52;99741.02;;;4.43;71.12
85039;BME280;75366;54.588;18.456;2024-02-04T05:40:56;99736.45;;;4.43;71.04
85039;BME280;75366;54.588;18.456;2024-02-04T05:45:59;99737.23;;;4.42;70.94
85039;BME280;75366;54.588;18.456;2024-02-04T05:51:02;99740.61;;;4.44;71.13
85039;BME280;75366;54.588;18.456;2024-02-04T05:56:04;99725.97;;;4.44;71.25
85039;BME280;75366;54.588;18.456;2024-02-04T06:01:08;99730.48;;;4.48;71.23
85039;BME280;75366;54.588;18.456;2024-02-04T06:06:18;99725.70;;;4.47;71.30
85039;BME280;75366;54.588;18.456;2024-02-04T06:11:22;99722.36;;;4.47;71.71
85039;BME280;75366;54.588;18.456;2024-02-04T06:16:25;99715.52;;;4.49;72.15
85039;BME280;75366;54.588;18.456;2024-02-04T06:21:29;99714.02;;;4.49;72.05
85039;BME280;75366;54.588;18.456;2024-02-04T06:26:32;99709.45;;;4.54;72.24
85039;BME280;75366;54.588;18.456;2024-02-04T06:31:35;99707.96;;;4.57;72.54
85039;BME280;75366;54.588;18.456;2024-02-04T06:36:42;99713.73;;;4.57;73.06
85039;BME280;75366;54.588;18.456;2024-02-04T06:41:45;99706.50;;;4.56;73.48
85039;BME280;75366;54.588;18.456;2024-02-04T06:46:48;99703.66;;;4.53;74.01
85039;BME280;75366;54.588;18.456;2024-02-04T06:51:51;99703.29;;;4.53;74.10
85039;BME280;75366;54.588;18.456;2024-02-04T06:56:59;99703.76;;;4.51;74.52
85039;BME280;75366;54.588;18.456;2024-02-04T07:02:02;99694.90;;;4.51;74.99
85039;BME280;75366;54.588;18.456;2024-02-04T07:07:05;99691.37;;;4.47;76.45
85039;BME280;75366;54.588;18.456;2024-02-04T07:12:08;99692.90;;;4.36;78.11
85039;BME280;75366;54.588;18.456;2024-02-04T07:17:11;99673.67;;;4.21;79.43
85039;BME280;75366;54.588;18.456;2024-02-04T07:22:14;99685.53;;;4.12;79.91
85039;BME280;75366;54.588;18.456;2024-02-04T07:27:18;99675.73;;;4.06;80.27
85039;BME280;75366;54.588;18.456;2024-02-04T07:32:21;99674.54;;;4.05;80.70
85039;BME280;75366;54.588;18.456;2024-02-04T07:37:24;99670.34;;;4.02;80.94
85039;BME280;75366;54.588;18.456;2024-02-04T07:42:27;99668.08;;;4.03;81.25
85039;BME280;75366;54.588;18.456;2024-02-04T07:47:30;99665.70;;;4.04;81.11
85039;BME280;75366;54.588;18.456;2024-02-04T07:52:33;99653.15;;;4.06;80.96
85039;BME280;75366;54.588;18.456;2024-02-04T07:57:36;99654.80;;;4.10;80.55
85039;BME280;75366;54.588;18.456;2024-02-04T08:02:39;99657.79;;;4.16;80.20
85039;BME280;75366;54.588;18.456;2024-02-04T08:07:42;99648.69;;;4.20;80.39
85039;BME280;75366;54.588;18.456;2024-02-04T08:12:45;99644.58;;;4.20;80.24
85039;BME280;75366;54.588;18.456;2024-02-04T08:17:53;99644.80;;;4.18;80.75
85039;BME280;75366;54.588;18.456;2024-02-04T08:22:56;99640.80;;;4.15;81.03
85039;BME280;75366;54.588;18.456;2024-02-04T08:27:59;99654.70;;;4.10;81.69
85039;BME280;75366;54.588;18.456;2024-02-04T08:33:02;99643.16;;;4.02;82.43
85039;BME280;75366;54.588;18.456;2024-02-04T08:38:05;99651.20;;;4.01;82.69
85039;BME280;75366;54.588;18.456;2024-02-04T08:43:07;99652.45;;;3.98;82.98
85039;BME280;75366;54.588;18.456;2024-02-04T08:48:10;99647.59;;;3.95;82.93
85039;BME280;75366;54.588;18.456;2024-02-04T08:53:13;99638.72;;;3.94;82.86
85039;BME280;75366;54.588;18.456;2024-02-04T08:58:16;99635.50;;;3.94;83.32
85039;BME280;75366;54.588;18.456;2024-02-04T09:03:39;99632.98;;;3.97;83.24
85039;BME280;75366;54.588;18.456;2024-02-04T09:08:42;99620.66;;;3.98;83.17
85039;BME280;75366;54.588;18.456;2024-02-04T09:14:05;99615.16;;;4.03;83.27
85039;BME280;75366;54.588;18.456;2024-02-04T09:19:09;99610.10;;;4.08;83.16
85039;BME280;75366;54.588;18.456;2024-02-04T09:24:12;99603.90;;;4.13;82.98
85039;BME280;75366;54.588;18.456;2024-02-04T09:29:35;99594.92;;;4.18;82.72
85039;BME280;75366;54.588;18.456;2024-02-04T09:34:58;99597.83;;;4.20;82.75
85039;BME280;75366;54.588;18.456;2024-02-04T09:40:22;99599.98;;;4.22;82.55
85039;BME280;75366;54.588;18.456;2024-02-04T09:45:45;99597.08;;;4.23;82.52
85039;BME280;75366;54.588;18.456;2024-02-04T09:51:08;99600.70;;;4.23;82.17
85039;BME280;75366;54.588;18.456;2024-02-04T09:56:31;99598.19;;;4.26;82.28
85039;BME280;75366;54.588;18.456;2024-02-04T10:01:55;99586.95;;;4.29;82.20
85039;BME280;75366;54.588;18.456;2024-02-04T10:07:23;99577.67;;;4.31;82.39
85039;BME280;75366;54.588;18.456;2024-02-04T10:12:47;99573.64;;;4.34;82.30
85039;BME280;75366;54.588;18.456;2024-02-04T10:18:10;99572.05;;;4.31;82.48
85039;BME280;75366;54.588;18.456;2024-02-04T10:23:33;99567.42;;;4.29;82.60
85039;BME280;75366;54.588;18.456;2024-02-04T10:28:58;99565.95;;;4.30;82.64
85039;BME280;75366;54.588;18.456;2024-02-04T10:34:10;99569.04;;;4.34;82.48
85039;BME280;75366;54.588;18.456;2024-02-04T10:39:13;99560.98;;;4.36;82.44
85039;BME280;75366;54.588;18.456;2024-02-04T10:44:21;99545.20;;;4.36;82.53
85039;BME280;75366;54.588;18.456;2024-02-04T10:49:26;99538.38;;;4.38;82.41
85039;BME280;75366;54.588;18.456;2024-02-04T10:54:49;99510.55;;;4.38;82.57
85039;BME280;75366;54.588;18.456;2024-02-04T10:59:53;99486.86;;;4.44;82.30
85039;BME280;75366;54.588;18.456;2024-02-04T11:05:16;99487.54;;;4.45;82.70
85039;BME280;75366;54.588;18.456;2024-02-04T11:10:39;99475.10;;;4.42;82.70
85039;BME280;75366;54.588;18.456;2024-02-04T11:16:07;99466.34;;;4.41;83.19
85039;BME280;75366;54.588;18.456;2024-02-04T11:21:56;99455.77;;;4.42;82.97
85039;BME280;75366;54.588;18.456;2024-02-04T11:27:22;99456.39;;;4.42;83.14
85039;BME280;75366;54.588;18.456;2024-02-04T11:32:47;99448.80;;;4.42;83.53
85039;BME280;75366;54.588;18.456;2024-02-04T11:38:10;99440.23;;;4.40;83.44
85039;BME280;75366;54.588;18.456;2024-02-04T11:43:36;99436.34;;;4.41;83.26
85039;BME280;75366;54.588;18.456;2024-02-04T11:48:53;99436.11;;;4.43;83.40
85039;BME280;75366;54.588;18.456;2024-02-04T11:53:57;99424.84;;;4.44;83.32
85039;BME280;75366;54.588;18.456;2024-02-04T11:59:01;99409.47;;;4.49;83.09
85039;BME280;75366;54.588;18.456;2024-02-04T12:04:13;99397.67;;;4.54;82.44
85039;BME280;75366;54.588;18.456;2024-02-04T12:09:17;99389.62;;;4.60;82.13
85039;BME280;75366;54.588;18.456;2024-02-04T12:14:25;99387.27;;;4.63;81.59
85039;BME280;75366;54.588;18.456;2024-02-04T12:19:28;99383.20;;;4.64;81.33
85039;BME280;75366;54.588;18.456;2024-02-04T12:24:31;99386.12;;;4.65;81.63
85039;BME280;75366;54.588;18.456;2024-02-04T12:29:36;99379.80;;;4.62;81.71
85039;BME280;75366;54.588;18.456;2024-02-04T12:34:38;99384.27;;;4.61;81.88
85039;BME280;75366;54.588;18.456;2024-02-04T12:39:41;99368.98;;;4.58;82.02
85039;BME280;75366;54.588;18.456;2024-02-04T12:44:46;99359.22;;;4.62;81.65
85039;BME280;75366;54.588;18.456;2024-02-04T12:49:49;99352.64;;;4.63;81.60
85039;BME280;75366;54.588;18.456;2024-02-04T12:54:52;99338.88;;;4.67;81.06
85039;BME280;75366;54.588;18.456;2024-02-04T13:00:04;99323.34;;;4.71;80.94
85039;BME280;75366;54.588;18.456;2024-02-04T13:05:21;99323.52;;;4.76;80.23
85039;BME280;75366;54.588;18.456;2024-02-04T13:10:25;99315.91;;;4.81;79.75
85039;BME280;75366;54.588;18.456;2024-02-04T13:15:42;99316.70;;;4.87;79.30
85039;BME280;75366;54.588;18.456;2024-02-04T13:20:48;99326.13;;;4.91;79.06
85039;BME280;75366;54.588;18.456;2024-02-04T13:25:51;99306.73;;;4.98;77.89
85039;BME280;75366;54.588;18.456;2024-02-04T13:30:55;99301.89;;;5.03;77.30
85039;BME280;75366;54.588;18.456;2024-02-04T13:35:58;99293.38;;;5.07;77.40
85039;BME280;75366;54.588;18.456;2024-02-04T13:41:02;99281.88;;;5.09;76.86
85039;BME280;75366;54.588;18.456;2024-02-04T13:46:06;99268.48;;;5.14;76.80
85039;BME280;75366;54.588;18.456;2024-02-04T13:51:10;99256.84;;;5.15;76.26
85039;BME280;75366;54.588;18.456;2024-02-04T13:56:12;99261.73;;;5.17;76.50
85039;BME280;75366;54.588;18.456;2024-02-04T14:01:15;99248.50;;;5.23;75.29
85039;BME280;75366;54.588;18.456;2024-02-04T14:06:19;99261.22;;;5.30;75.20
85039;BME280;75366;54.588;18.456;2024-02-04T14:11:22;99255.83;;;5.36;74.86
85039;BME280;75366;54.588;18.456;2024-02-04T14:16:25;99259.70;;;5.38;75.11
85039;BME280;75366;54.588;18.456;2024-02-04T14:21:28;99248.38;;;5.37;75.15
85039;BME280;75366;54.588;18.456;2024-02-04T14:26:31;99239.81;;;5.39;74.94
85039;BME280;75366;54.588;18.456;2024-02-04T14:31:34;99242.98;;;5.41;74.81
85039;BME280;75366;54.588;18.456;2024-02-04T14:37:01;99237.25;;;5.44;74.43
85039;BME280;75366;54.588;18.456;2024-02-04T14:42:24;99235.88;;;5.47;73.94
85039;BME280;75366;54.588;18.456;2024-02-04T14:47:27;99232.74;;;5.50;73.98
85039;BME280;75366;54.588;18.456;2024-02-04T14:52:30;99243.27;;;5.50;74.01
85039;BME280;75366;54.588;18.456;2024-02-04T14:57:33;99217.83;;;5.49;74.06
85039;BME280;75366;54.588;18.456;2024-02-04T15:02:36;99226.61;;;5.51;74.15
85039;BME280;75366;54.588;18.456;2024-02-04T15:07:38;99224.32;;;5.51;74.47
85039;BME280;75366;54.588;18.456;2024-02-04T15:13:01;99221.59;;;5.49;74.43
85039;BME280;75366;54.588;18.456;2024-02-04T15:18:24;99216.07;;;5.52;73.94
85039;BME280;75366;54.588;18.456;2024-02-04T15:23:47;99214.02;;;5.56;73.62
85039;BME280;75366;54.588;18.456;2024-02-04T15:29:20;99208.84;;;5.57;73.55
85039;BME280;75366;54.588;18.456;2024-02-04T15:34:24;99201.72;;;5.56;73.72
85039;BME280;75366;54.588;18.456;2024-02-04T15:39:47;99198.95;;;5.57;73.75
85039;BME280;75366;54.588;18.456;2024-02-04T15:45:10;99186.47;;;5.56;73.84
85039;BME280;75366;54.588;18.456;2024-02-04T15:50:33;99189.66;;;5.60;73.53
85039;BME280;75366;54.588;18.456;2024-02-04T15:55:56;99179.92;;;5.58;73.59
85039;BME280;75366;54.588;18.456;2024-02-04T16:01:21;99182.32;;;5.64;73.02
85039;BME280;75366;54.588;18.456;2024-02-04T16:06:45;99188.62;;;5.63;73.28
85039;BME280;75366;54.588;18.456;2024-02-04T16:11:52;99182.82;;;5.66;72.91
85039;BME280;75366;54.588;18.456;2024-02-04T16:17:03;99182.02;;;5.69;72.64
85039;BME280;75366;54.588;18.456;2024-02-04T16:22:07;99187.67;;;5.70;72.71
85039;BME280;75366;54.588;18.456;2024-02-04T16:27:10;99171.89;;;5.69;72.98
85039;BME280;75366;54.588;18.456;2024-02-04T16:32:12;99193.45;;;5.73;72.60
85039;BME280;75366;54.588;18.456;2024-02-04T16:37:17;99188.95;;;5.74;72.63
85039;BME280;75366;54.588;18.456;2024-02-04T16:42:19;99195.36;;;5.72;72.76
85039;BME280;75366;54.588;18.456;2024-02-04T16:47:22;99187.39;;;5.72;72.61
85039;BME280;75366;54.588;18.456;2024-02-04T16:52:25;99182.15;;;5.73;72.41
85039;BME280;75366;54.588;18.456;2024-02-04T16:57:28;99189.64;;;5.74;72.69
85039;BME280;75366;54.588;18.456;2024-02-04T17:02:32;99168.03;;;5.76;72.39
85039;BME280;75366;54.588;18.456;2024-02-04T17:07:35;99158.98;;;5.76;72.74
85039;BME280;75366;54.588;18.456;2024-02-04T17:12:42;99155.14;;;5.72;72.80
85039;BME280;75366;54.588;18.456;2024-02-04T17:17:56;99151.23;;;5.69;72.68
85039;BME280;75366;54.588;18.456;2024-02-04T17:23:08;99147.48;;;5.68;72.58
85039;BME280;75366;54.588;18.456;2024-02-04T17:28:31;99156.14;;;5.73;72.40
85039;BME280;75366;54.588;18.456;2024-02-04T17:33:54;99153.52;;;5.72;72.80
85039;BME280;75366;54.588;18.456;2024-02-04T17:39:17;99151.19;;;5.67;73.03
85039;BME280;75366;54.588;18.456;2024-02-04T17:44:41;99151.52;;;5.65;72.96
85039;BME280;75366;54.588;18.456;2024-02-04T17:50:04;99156.63;;;5.65;72.79
85039;BME280;75366;54.588;18.456;2024-02-04T17:55:30;99151.59;;;5.59;74.28
85039;BME280;75366;54.588;18.456;2024-02-04T18:00:53;99157.54;;;5.53;73.92
85039;BME280;75366;54.588;18.456;2024-02-04T18:06:16;99170.33;;;5.55;73.83
85039;BME280;75366;54.588;18.456;2024-02-04T18:11:39;99160.27;;;5.57;73.75
85039;BME280;75366;54.588;18.456;2024-02-04T18:17:02;99163.93;;;5.58;73.68
85039;BME280;75366;54.588;18.456;2024-02-04T18:22:29;99168.27;;;5.58;73.81
85039;BME280;75366;54.588;18.456;2024-02-04T18:27:39;99155.72;;;5.59;73.35
85039;BME280;75366;54.588;18.456;2024-02-04T18:32:46;99153.32;;;5.59;73.25
85039;BME280;75366;54.588;18.456;2024-02-04T18:37:49;99150.55;;;5.61;72.80
85039;BME280;75366;54.588;18.456;2024-02-04T18:42:52;99146.23;;;5.62;73.12
85039;BME280;75366;54.588;18.456;2024-02-04T18:47:54;99143.88;;;5.59;73.29
85039;BME280;75366;54.588;18.456;2024-02-04T18:52:58;99148.75;;;5.58;73.19
85039;BME280;75366;54.588;18.456;2024-02-04T18:58:02;99149.30;;;5.59;72.79
85039;BME280;75366;54.588;18.456;2024-02-04T19:03:05;99161.52;;;5.60;72.67
85039;BME280;75366;54.588;18.456;2024-02-04T19:08:08;99154.38;;;5.59;71.98
85039;BME280;75366;54.588;18.456;2024-02-04T19:13:11;99142.89;;;5.60;71.58
85039;BME280;75366;54.588;18.456;2024-02-04T19:18:15;99148.14;;;5.60;71.39
85039;BME280;75366;54.588;18.456;2024-02-04T19:23:18;99134.65;;;5.59;71.69
85039;BME280;75366;54.588;18.456;2024-02-04T19:28:21;99148.11;;;5.58;71.95
85039;BME280;75366;54.588;18.456;2024-02-04T19:33:24;99144.35;;;5.55;72.26
85039;BME280;75366;54.588;18.456;2024-02-04T19:38:56;99149.67;;;5.51;72.47
85039;BME280;75366;54.588;18.456;2024-02-04T19:43:59;99140.48;;;5.46;72.61
85039;BME280;75366;54.588;18.456;2024-02-04T19:49:02;99127.52;;;5.39;72.20
85039;BME280;75366;54.588;18.456;2024-02-04T19:54:05;99137.38;;;5.36;72.00
85039;BME280;75366;54.588;18.456;2024-02-04T19:59:08;99135.33;;;5.31;71.44
85039;BME280;75366;54.588;18.456;2024-02-04T20:04:12;99135.48;;;5.28;70.97
85039;BME280;75366;54.588;18.456;2024-02-04T20:09:15;99143.33;;;5.24;70.79
85039;BME280;75366;54.588;18.456;2024-02-04T20:14:18;99144.20;;;5.24;70.52
85039;BME280;75366;54.588;18.456;2024-02-04T20:19:21;99150.17;;;5.23;70.46
85039;BME280;75366;54.588;18.456;2024-02-04T20:24:42;99147.93;;;5.19;70.94
85039;BME280;75366;54.588;18.456;2024-02-04T20:29:45;99156.86;;;5.19;71.49
85039;BME280;75366;54.588;18.456;2024-02-04T20:34:48;99150.16;;;5.18;72.09
85039;BME280;75366;54.588;18.456;2024-02-04T20:39:51;99151.02;;;5.19;72.69
85039;BME280;75366;54.588;18.456;2024-02-04T20:44:54;99139.29;;;5.13;73.73
85039;BME280;75366;54.588;18.456;2024-02-04T20:49:57;99131.19;;;5.08;74.65
85039;BME280;75366;54.588;18.456;2024-02-04T20:55:01;99120.14;;;5.02;75.47
85039;BME280;75366;54.588;18.456;2024-02-04T21:00:05;99126.34;;;4.96;76.32
85039;BME280;75366;54.588;18.456;2024-02-04T21:05:09;99120.60;;;4.91;77.47
85039;BME280;75366;54.588;18.456;2024-02-04T21:10:13;99123.15;;;4.82;78.56
85039;BME280;75366;54.588;18.456;2024-02-04T21:15:19;99123.16;;;4.70;79.46
85039;BME280;75366;54.588;18.456;2024-02-04T21:20:22;99128.56;;;4.56;79.88
85039;BME280;75366;54.588;18.456;2024-02-04T21:25:25;99124.27;;;4.37;80.09
85039;BME280;75366;54.588;18.456;2024-02-04T21:30:28;99115.77;;;4.21;81.06
85039;BME280;75366;54.588;18.456;2024-02-04T21:35:34;99118.05;;;4.05;81.63
85039;BME280;75366;54.588;18.456;2024-02-04T21:40:41;99111.55;;;3.97;82.20
85039;BME280;75366;54.588;18.456;2024-02-04T21:45:46;99101.95;;;3.91;82.84
85039;BME280;75366;54.588;18.456;2024-02-04T21:50:49;99107.34;;;3.86;83.55
85039;BME280;75366;54.588;18.456;2024-02-04T21:55:52;99098.20;;;3.87;84.37
85039;BME280;75366;54.588;18.456;2024-02-04T22:00:56;99093.25;;;3.97;84.84
85039;BME280;75366;54.588;18.456;2024-02-04T22:06:00;99069.77;;;4.11;84.91
85039;BME280;75366;54.588;18.456;2024-02-04T22:11:04;99078.27;;;4.30;84.63
85039;BME280;75366;54.588;18.456;2024-02-04T22:16:06;99066.59;;;4.44;84.27
85039;BME280;75366;54.588;18.456;2024-02-04T22:21:17;99053.92;;;4.53;83.99
85039;BME280;75366;54.588;18.456;2024-02-04T22:26:21;99051.48;;;4.61;83.56
85039;BME280;75366;54.588;18.456;2024-02-04T22:31:24;99045.92;;;4.70;82.99
85039;BME280;75366;54.588;18.456;2024-02-04T22:36:27;99042.77;;;4.75;82.83
85039;BME280;75366;54.588;18.456;2024-02-04T22:41:31;99025.85;;;4.77;82.86
85039;BME280;75366;54.588;18.456;2024-02-04T22:46:34;99026.41;;;4.78;83.02
85039;BME280;75366;54.588;18.456;2024-02-04T22:51:37;99031.11;;;4.78;82.85
85039;BME280;75366;54.588;18.456;2024-02-04T22:56:41;99025.90;;;4.77;83.14
85039;BME280;75366;54.588;18.456;2024-02-04T23:01:45;99028.23;;;4.77;83.07
85039;BME280;75366;54.588;18.456;2024-02-04T23:06:49;99025.30;;;4.82;82.62
85039;BME280;75366;54.588;18.456;2024-02-04T23:11:52;99018.23;;;4.89;82.35
85039;BME280;75366;54.588;18.456;2024-02-04T23:16:55;99016.08;;;4.93;82.05
85039;BME280;75366;54.588;18.456;2024-02-04T23:21:59;99001.69;;;4.93;82.75
85039;BME280;75366;54.588;18.456;2024-02-04T23:27:03;99001.77;;;4.91;82.77
85039;BME280;75366;54.588;18.456;2024-02-04T23:32:06;98999.42;;;4.88;83.29
85039;BME280;75366;54.588;18.456;2024-02-04T23:37:09;99000.02;;;4.85;83.24
85039;BME280;75366;54.588;18.456;2024-02-04T23:42:12;98991.20;;;4.84;83.50
85039;BME280;75366;54.588;18.456;2024-02-04T23:47:15;98992.98;;;4.84;83.37
85039;BME280;75366;54.588;18.456;2024-02-04T23:52:18;98989.23;;;4.84;83.02
85039;BME280;75366;54.588;18.456;2024-02-04T23:57:21;98992.78;;;4.86;82.26
